Latest Weather Observations for South Channel Island

IDV60801

Issued at 7:22 am EDT Sunday 3 March 2024 (issued every 10 minutes, with the page automatically refreshed every 10 minutes)

About weather observations | Map of weather stations | Latest weather observations for VIC | Other Formats
Station Details ID: 086344 Name: SOUTH CHANNEL ISLAND Lat: -38.31 Lon: 144.80 Height: 9.0 m
Data from the previous 72 hours. | See also: Recent months at South Channel Island
Date/Time
EDT
Temp
°C
App
Temp
°C
Dew
Point
°C
Rel
Hum
%
Delta-T
°C
Wind Press
QNH
hPa
Press
MSL
hPa
Rain since
9am
mm
Dir  Spd
km/h
Gust
km/h
Spd
kts
Gust
kts
03/07:00am - - - - - W 32 35 17 19 - - -
03/06:30am - - - - - W 30 35 16 19 - - -
03/06:00am - - - - - W 28 33 15 18 - - -
03/05:30am - - - - - WSW 30 35 16 19 - - -
03/05:00am - - - - - W 30 37 16 20 - - -
03/04:30am - - - - - W 28 35 15 19 - - -
03/04:00am - - - - - SW 24 33 13 18 - - -
03/03:30am - - - - - SW 28 35 15 19 - - -
03/03:00am - - - - - SW 26 32 14 17 - - -
03/02:30am - - - - - SSW 26 32 14 17 - - -
03/02:00am - - - - - SW 22 30 12 16 - - -
03/01:30am - - - - - SW 26 32 14 17 - - -
03/01:00am - - - - - SSW 24 30 13 16 - - -
03/12:30am - - - - - SSW 26 32 14 17 - - -
03/12:00am - - - - - SSW 26 33 14 18 - - -
 
Date/Time
EDT
Temp
°C
App
Temp
°C
Dew
Point
°C
Rel
Hum
%
Delta-T
°C
Wind Press
QNH
hPa
Press
MSL
hPa
Rain since
9am
mm
Dir  Spd
km/h
Gust
km/h
Spd
kts
Gust
kts
02/11:30pm - - - - - SSW 20 28 11 15 - - -
02/11:00pm - - - - - SSW 19 24 10 13 - - -
02/10:30pm - - - - - SSW 17 24 9 13 - - -
02/10:00pm - - - - - SSW 17 20 9 11 - - -
02/09:30pm - - - - - SSW 17 20 9 11 - - -
02/09:00pm - - - - - S 15 19 8 10 - - -
02/08:30pm - - - - - S 17 24 9 13 - - -
02/08:00pm - - - - - SSW 17 22 9 12 - - -
02/07:30pm - - - - - S 19 24 10 13 - - -
02/07:00pm - - - - - SSW 22 37 12 20 - - -
02/06:30pm - - - - - S 24 28 13 15 - - -
02/06:00pm - - - - - SSW 24 28 13 15 - - -
02/05:30pm - - - - - S 28 33 15 18 - - -
02/05:00pm - - - - - S 30 37 16 20 - - -
02/04:30pm - - - - - S 28 35 15 19 - - -
02/04:00pm - - - - - S 28 33 15 18 - - -
02/03:30pm - - - - - S 24 32 13 17 - - -
02/03:00pm - - - - - S 30 35 16 19 - - -
02/02:30pm - - - - - SSW 30 39 16 21 - - -
02/02:00pm - - - - - SSW 32 37 17 20 - - -
02/01:30pm - - - - - SSW 32 39 17 21 - - -
02/01:00pm - - - - - S 30 37 16 20 - - -
02/12:30pm - - - - - S 24 35 13 19 - - -
02/12:00pm - - - - - S 28 39 15 21 - - -
02/11:30am - - - - - S 32 39 17 21 - - -
02/11:00am - - - - - S 35 41 19 22 - - -
02/10:30am - - - - - S 35 43 19 23 - - -
02/10:00am - - - - - SSW 30 37 16 20 - - -
02/09:30am - - - - - S 30 35 16 19 - - -
02/09:00am - - - - - S 30 33 16 18 - - -
02/08:30am - - - - - SSW 35 43 19 23 - - -
02/08:00am - - - - - S 33 39 18 21 - - -
02/07:30am - - - - - SSW 30 35 16 19 - - -
02/07:00am - - - - - SSW 33 39 18 21 - - -
02/06:30am - - - - - SSW 37 43 20 23 - - -
02/06:20am - - - - - SSW 37 44 20 24 - - -
02/06:00am - - - - - SW 35 41 19 22 - - -
02/05:30am - - - - - SW 35 41 19 22 - - -
02/05:00am - - - - - WSW 35 41 19 22 - - -
02/04:30am - - - - - SW 28 37 15 20 - - -
02/04:00am - - - - - SW 30 33 16 18 - - -
02/03:30am - - - - - WSW 20 32 11 17 - - -
02/03:00am - - - - - W 24 28 13 15 - - -
02/02:30am - - - - - W 28 32 15 17 - - -
02/02:00am - - - - - WSW 26 30 14 16 - - -
02/01:30am - - - - - SW 32 35 17 19 - - -
02/01:00am - - - - - WSW 30 33 16 18 - - -
02/12:30am - - - - - SW 32 35 17 19 - - -
02/12:00am - - - - - SW 33 39 18 21 - - -
 
Date/Time
EDT
Temp
°C
App
Temp
°C
Dew
Point
°C
Rel
Hum
%
Delta-T
°C
Wind Press
QNH
hPa
Press
MSL
hPa
Rain since
9am
mm
Dir  Spd
km/h
Gust
km/h
Spd
kts
Gust
kts
01/11:30pm - - - - - SW 35 39 19 21 - - -
01/11:00pm - - - - - SW 41 48 22 26 - - -
01/10:30pm - - - - - SW 37 44 20 24 - - -
01/10:00pm - - - - - SSW 41 48 22 26 - - -
01/09:30pm - - - - - SSW 33 44 18 24 - - -
01/09:00pm - - - - - SSW 35 43 19 23 - - -
01/08:30pm - - - - - SSW 39 46 21 25 - - -
01/08:00pm - - - - - SSW 35 41 19 22 - - -
01/07:30pm - - - - - SSW 35 41 19 22 - - -
01/07:00pm - - - - - SSW 46 52 25 28 - - -
01/06:30pm - - - - - SSW 43 50 23 27 - - -
01/06:00pm - - - - - S 41 48 22 26 - - -
01/05:30pm - - - - - S 41 48 22 26 - - -
01/05:00pm - - - - - SSW 41 48 22 26 - - -
01/04:30pm - - - - - SSW 39 46 21 25 - - -
01/04:00pm - - - - - SSW 37 43 20 23 - - -
01/03:30pm - - - - - SSW 32 35 17 19 - - -
01/03:00pm - - - - - SSW 28 33 15 18 - - -
01/02:57pm - - - - - S 28 33 15 18 - - -
01/02:30pm - - - - - SSE 13 15 7 8 - - -
01/02:00pm - - - - - ENE 7 9 4 5 - - -
01/01:30pm - - - - - ENE 6 7 3 4 - - -
01/01:00pm - - - - - ENE 6 7 3 4 - - -
01/12:30pm - - - - - ENE 6 7 3 4 - - -
01/12:00pm - - - - - ENE 9 9 5 5 - - -
01/11:30am - - - - - ENE 9 11 5 6 - - -
01/11:00am - - - - - ENE 9 11 5 6 - - -
01/10:30am - - - - - ENE 7 9 4 5 - - -
01/10:00am - - - - - ENE 7 11 4 6 - - -
01/09:30am - - - - - ENE 6 7 3 4 - - -
01/09:00am - - - - - E 7 9 4 5 - - -
01/08:30am - - - - - ESE 7 9 4 5 - - -
01/08:00am - - - - - E 7 9 4 5 - - -
01/07:30am - - - - - ESE 9 11 5 6 - - -
01/07:00am - - - - - SE 11 13 6 7 - - -
01/06:30am - - - - - CALM 0 0 0 0 - - -
01/06:00am - - - - - CALM 0 0 0 0 - - -
01/05:30am - - - - - ENE 4 9 2 5 - - -
01/05:00am - - - - - ENE 7 9 4 5 - - -
01/04:30am - - - - - ENE 6 7 3 4 - - -
01/04:00am - - - - - ENE 4 7 2 4 - - -
01/03:30am - - - - - ENE 9 9 5 5 - - -
01/03:00am - - - - - ENE 7 9 4 5 - - -
01/02:30am - - - - - ENE 11 13 6 7 - - -
01/02:00am - - - - - ENE 15 17 8 9 - - -
01/01:30am - - - - - E 7 9 4 5 - - -
01/01:00am - - - - - SE 9 13 5 7 - - -
01/12:30am - - - - - SE 9 13 5 7 - - -
01/12:00am - - - - - SSE 13 17 7 9 - - -
 
Date/Time
EDT
Temp
°C
App
Temp
°C
Dew
Point
°C
Rel
Hum
%
Delta-T
°C
Wind Press
QNH
hPa
Press
MSL
hPa
Rain since
9am
mm
Dir  Spd
km/h
Gust
km/h
Spd
kts
Gust
kts
29/11:30pm - - - - - SE 15 17 8 9 - - -
29/11:00pm - - - - - SE 13 17 7 9 - - -
29/10:30pm - - - - - SSE 19 20 10 11 - - -
29/10:00pm - - - - - SE 17 19 9 10 - - -
29/09:30pm - - - - - SSE 15 19 8 10 - - -
29/09:00pm - - - - - SSE 19 22 10 12 - - -
29/08:30pm - - - - - SSE 20 26 11 14 - - -
29/08:00pm - - - - - SSE 17 20 9 11 - - -
29/07:30pm - - - - - S 22 28 12 15 - - -
29/07:00pm - - - - - S 24 32 13 17 - - -
29/06:30pm - - - - - S 26 33 14 18 - - -
29/06:00pm - - - - - S 24 30 13 16 - - -
29/05:30pm - - - - - S 28 33 15 18 - - -
29/05:00pm - - - - - S 30 35 16 19 - - -
29/04:30pm - - - - - S 28 32 15 17 - - -
29/04:00pm - - - - - S 26 30 14 16 - - -
29/03:30pm - - - - - S 20 28 11 15 - - -
29/03:00pm - - - - - S 22 28 12 15 - - -
29/02:30pm - - - - - SSW 26 30 14 16 - - -
29/02:00pm - - - - - SSW 30 35 16 19 - - -
29/01:30pm - - - - - SSW 26 30 14 16 - - -
29/01:00pm - - - - - SSW 24 30 13 16 - - -
29/12:30pm - - - - - SSW 24 28 13 15 - - -
29/12:00pm - - - - - SW 20 26 11 14 - - -
29/11:30am - - - - - W 20 26 11 14 - - -
29/11:00am - - - - - WSW 26 33 14 18 - - -
29/10:30am - - - - - W 26 33 14 18 - - -
29/10:00am - - - - - W 33 37 18 20 - - -
29/09:30am - - - - - W 28 32 15 17 - - -
29/09:00am - - - - - W 28 33 15 18 - - -
29/08:30am - - - - - WSW 32 37 17 20 - - -
29/08:00am - - - - - WSW 28 43 15 23 - - -
29/07:30am - - - - - W 30 35 16 19 - - -

Other formats

Comma delimited format used in spreadsheet applications
http://www.bom.gov.au/fwo/IDV60801/IDV60801.94853.axf

JavaScript Object Notation format (JSON) in row-major order
http://www.bom.gov.au/fwo/IDV60801/IDV60801.94853.json

Data quality

Most of these data are generated automatically and are frequently updated. Quality checks on data are not normally performed. It is possible for incorrect values to appear. Refer to information at About Latest Weather Observations and please check the disclaimer before using these data.